(°C)
-3°
-4°
-4°
-4°
-5°
-5°
-5°
(°C)
-8°
-8°
-8°
-8°
-9°
-9°
-9°
NW
NW
NW
NW
NNW
NNW
NNW
(km/h)
9-23
9-23
9-24
7-20
7-18
7-18
6-17
(mm)
1
0.9
0
0
0
0
0
(%)
63
62
33
33
33
28
33

Sonnenhöhe

/ -62.5°
sun-icon
UV 1
07:50
17:00
Abnehmender Mond (220°)
20:40
09:59

METAR für Innsbruck (LOWI)

Zeit Bedingungen Temperatur/
Taupunkt
Wind Sichtweite Wetter Wolken Druck Änderung Roh
VFR 1°C / -4°C variable 2kt >10km - Few Clouds 1500ft
Scattered Clouds 5000ft
Broken Clouds 7000ft
1025 - LOWI 202250Z AUTO VRB02KT 9999 FEW015 SCT050 BKN070 01/M04 Q1025
VFR 1°C / -3°C 110º variable 070º to 160º 4kt >10km - Few Clouds 4000ft
Broken Clouds 5000ft
1025 - LOWI 202220Z AUTO 11004KT 070V160 9999 FEW040 BKN050 01/M03 Q1025
VFR 1°C / -2°C 90º 12kt >10km Light Snow 1.00mm precipitation Vertical Visibility of 0ft.
Scattered Clouds 5000ft
Broken Clouds 7000ft
1025 No Significant change LOWI 202150Z 09012KT 9999 -SN FEW025 SCT050 BKN070 01/M02 Q1025 NOSIG
VFR 1°C / -2°C 100º variable 060º to 120º 9kt >10km - Few Clouds 2500ft
Scattered Clouds 5000ft
Broken Clouds 7000ft
1024 No Significant change LOWI 202120Z 10009KT 060V120 9999 FEW025 SCT050 BKN070 01/M02 Q1024 NOSIG
VFR 1°C / -3°C 90º variable 060º to 120º 8kt >10km - Few Clouds 2500ft
Scattered Clouds 5000ft
Broken Clouds 7000ft
1024 No Significant change LOWI 202050Z 09008KT 060V120 9999 FEW025 SCT050 BKN070 01/M03 Q1024 NOSIG
VFR 2°C / -3°C 130º variable 100º to 180º 6kt >10km - Few Clouds 2500ft
Scattered Clouds 5000ft
Broken Clouds 8000ft
1024 No Significant change LOWI 202020Z 13006KT 100V180 9999 FEW025 SCT050 BKN080 02/M03 Q1024 NOSIG
VFR 3°C / -5°C 300º 12kt >10km Light Snow 1.00mm precipitation Vertical Visibility of 0ft.
Scattered Clouds 3200ft
Broken Clouds 5000ft
1023 No Significant change LOWI 201950Z 30012KT 9999 -SN FEW025 SCT032 BKN050 03/M05 Q1023 NOSIG
VFR 4°C / -7°C 290º variable 260º to 330º 11kt Gust 21kt >10km - Few Clouds 2800ft
Scattered Clouds 3500ft
Broken Clouds 6000ft
1023 No Significant change LOWI 201920Z 29011G21KT 260V330 9999 FEW028 SCT035 BKN060 04/M07 Q1023 NOSIG
VFR 4°C / -8°C 280º variable 250º to 340º 14kt Gust 25kt >10km - Few Clouds 2800ft
Scattered Clouds 3500ft
Broken Clouds 6000ft
1023 No Significant change LOWI 201850Z 28014G25KT 250V340 9999 FEW028 SCT035 BKN060 04/M08 Q1023 NOSIG
VFR 4°C / -8°C 290º variable 250º to 320º 12kt Gust 24kt >10km - Few Clouds 3500ft
Broken Clouds 5000ft
1023 No Significant change LOWI 201820Z 29012G24KT 250V320 9999 FEW035 BKN050 04/M08 Q1023 NOSIG
VFR 4°C / -7°C 330º variable 290º to 350º 13kt >10km - Few Clouds 3200ft
Scattered Clouds 4000ft
Broken Clouds 6000ft
1023 No Significant change LOWI 201750Z 33013KT 290V350 9999 FEW032 SCT040 BKN060 04/M07 Q1023 NOSIG
VFR 2°C / -2°C variable 3kt >10km - Few Clouds 4200ft
Broken Clouds 5000ft
1023 Temporary: Wind 270º 15kt. LOWI 201720Z VRB03KT 9999 FEW042 BKN050 02/M02 Q1023 TEMPO 27015KT
VFR 1°C / -2°C variable 3kt >10km - Few Clouds 5000ft
Broken Clouds 7000ft
1023 Temporary: Wind 270º 12kt. LOWI 201650Z VRB03KT 9999 FEW050 BKN070 01/M02 Q1023 TEMPO 27012KT
VFR 2°C / -2°C variable 2kt >10km - Few Clouds 4500ft
Broken Clouds 7000ft
1023 No Significant change LOWI 201620Z VRB02KT 9999 FEW045 BKN070 02/M02 Q1023 NOSIG
VFR 3°C / -2°C 100º variable 070º to 150º 3kt >10km - Few Clouds 4200ft
Broken Clouds 7500ft
1023 No Significant change LOWI 201550Z 10003KT 070V150 9999 FEW042 BKN075 03/M02 Q1023 NOSIG
VFR 3°C / -1°C variable 2kt >10km - Few Clouds 1700ft
Broken Clouds 7500ft
1022 No Significant change LOWI 201520Z VRB02KT 9999 FEW017 BKN075 03/M01 Q1022 NOSIG
VFR 3°C / -1°C variable 2kt >10km - Few Clouds 1700ft
Scattered Clouds 6000ft
Broken Clouds 7500ft
1022 No Significant change LOWI 201450Z VRB02KT 9999 FEW017 SCT060 BKN075 03/M01 Q1022 NOSIG
VFR 3°C / 0°C 60º variable 020º to 100º 4kt >10km - Few Clouds 2000ft
Scattered Clouds 6000ft
Broken Clouds 7500ft
1022 No Significant change LOWI 201420Z 06004KT 020V100 9999 FEW020 SCT060 BKN075 03/M00 Q1022 NOSIG
VFR 3°C / -1°C 70º 8kt >10km - Few Clouds 2000ft
Broken Clouds 6000ft
1021 No Significant change LOWI 201350Z 07008KT 9999 FEW020 BKN060 03/M01 Q1021 NOSIG
VFR 3°C / -1°C 90º variable 060º to 130º 6kt >10km - Few Clouds 3500ft
Scattered Clouds 5000ft
Broken Clouds 7000ft
1021 No Significant change LOWI 201320Z 09006KT 060V130 9999 FEW035 SCT050 BKN070 03/M01 Q1021 NOSIG
VFR 3°C / -1°C 70º variable 040º to 120º 6kt >10km - Few Clouds 3500ft
Broken Clouds 5000ft
1022 No Significant change LOWI 201250Z 07006KT 040V120 9999 FEW035 BKN050 03/M01 Q1022 NOSIG
VFR 3°C / -2°C 70º 5kt >10km Light Snow 1.00mm precipitation Vertical Visibility of 0ft.
Broken Clouds 5000ft
1022 No Significant change LOWI 201220Z 07005KT 9999 -SN FEW030 BKN050 03/M02 Q1022 NOSIG
VFR 3°C / -2°C 110º variable 050º to 170º 4kt >10km - Few Clouds 4000ft
Scattered Clouds 5000ft
Broken Clouds 6000ft
1022 No Significant change LOWI 201150Z 11004KT 050V170 9999 FEW040 SCT050 BKN060 03/M02 Q1022 NOSIG
VFR 3°C / -3°C 100º variable 040º to 170º 3kt >10km Light Snow Grains 1.00mm precipitation Vertical Visibility of 0ft.
Scattered Clouds 5000ft
Broken Clouds 6000ft
1022 No Significant change LOWI 201120Z 10003KT 040V170 9999 -SG FEW040 SCT050 BKN060 03/M03 Q1022 NOSIG

VFR

1°C / -4°C

[Mehr]
Wind variable 2kt
Sichtweite >10km
Wetter -
Wolken Few Clouds 1500ft
Scattered Clouds 5000ft
Broken Clouds 7000ft
Druck 1025
Änderung -
Roh LOWI 202250Z AUTO VRB02KT 9999 FEW015 SCT050 BKN070 01/M04 Q1025

VFR

1°C / -3°C

[Mehr]
Wind 110º variable 070º to 160º 4kt
Sichtweite >10km
Wetter -
Wolken Few Clouds 4000ft
Broken Clouds 5000ft
Druck 1025
Änderung -
Roh LOWI 202220Z AUTO 11004KT 070V160 9999 FEW040 BKN050 01/M03 Q1025

VFR

1°C / -2°C

[Mehr]
Wind 90º 12kt
Sichtweite >10km
Wetter Light Snow 1.00mm precipitation
Wolken Vertical Visibility of 0ft.
Scattered Clouds 5000ft
Broken Clouds 7000ft
Druck 1025
Änderung No Significant change
Roh LOWI 202150Z 09012KT 9999 -SN FEW025 SCT050 BKN070 01/M02 Q1025 NOSIG

VFR

1°C / -2°C

[Mehr]
Wind 100º variable 060º to 120º 9kt
Sichtweite >10km
Wetter -
Wolken Few Clouds 2500ft
Scattered Clouds 5000ft
Broken Clouds 7000ft
Druck 1024
Änderung No Significant change
Roh LOWI 202120Z 10009KT 060V120 9999 FEW025 SCT050 BKN070 01/M02 Q1024 NOSIG

VFR

1°C / -3°C

[Mehr]
Wind 90º variable 060º to 120º 8kt
Sichtweite >10km
Wetter -
Wolken Few Clouds 2500ft
Scattered Clouds 5000ft
Broken Clouds 7000ft
Druck 1024
Änderung No Significant change
Roh LOWI 202050Z 09008KT 060V120 9999 FEW025 SCT050 BKN070 01/M03 Q1024 NOSIG

VFR

2°C / -3°C

[Mehr]
Wind 130º variable 100º to 180º 6kt
Sichtweite >10km
Wetter -
Wolken Few Clouds 2500ft
Scattered Clouds 5000ft
Broken Clouds 8000ft
Druck 1024
Änderung No Significant change
Roh LOWI 202020Z 13006KT 100V180 9999 FEW025 SCT050 BKN080 02/M03 Q1024 NOSIG

VFR

3°C / -5°C

[Mehr]
Wind 300º 12kt
Sichtweite >10km
Wetter Light Snow 1.00mm precipitation
Wolken Vertical Visibility of 0ft.
Scattered Clouds 3200ft
Broken Clouds 5000ft
Druck 1023
Änderung No Significant change
Roh LOWI 201950Z 30012KT 9999 -SN FEW025 SCT032 BKN050 03/M05 Q1023 NOSIG

VFR

4°C / -7°C

[Mehr]
Wind 290º variable 260º to 330º 11kt Gust 21kt
Sichtweite >10km
Wetter -
Wolken Few Clouds 2800ft
Scattered Clouds 3500ft
Broken Clouds 6000ft
Druck 1023
Änderung No Significant change
Roh LOWI 201920Z 29011G21KT 260V330 9999 FEW028 SCT035 BKN060 04/M07 Q1023 NOSIG

VFR

4°C / -8°C

[Mehr]
Wind 280º variable 250º to 340º 14kt Gust 25kt
Sichtweite >10km
Wetter -
Wolken Few Clouds 2800ft
Scattered Clouds 3500ft
Broken Clouds 6000ft
Druck 1023
Änderung No Significant change
Roh LOWI 201850Z 28014G25KT 250V340 9999 FEW028 SCT035 BKN060 04/M08 Q1023 NOSIG

VFR

4°C / -8°C

[Mehr]
Wind 290º variable 250º to 320º 12kt Gust 24kt
Sichtweite >10km
Wetter -
Wolken Few Clouds 3500ft
Broken Clouds 5000ft
Druck 1023
Änderung No Significant change
Roh LOWI 201820Z 29012G24KT 250V320 9999 FEW035 BKN050 04/M08 Q1023 NOSIG

VFR

4°C / -7°C

[Mehr]
Wind 330º variable 290º to 350º 13kt
Sichtweite >10km
Wetter -
Wolken Few Clouds 3200ft
Scattered Clouds 4000ft
Broken Clouds 6000ft
Druck 1023
Änderung No Significant change
Roh LOWI 201750Z 33013KT 290V350 9999 FEW032 SCT040 BKN060 04/M07 Q1023 NOSIG

VFR

2°C / -2°C

[Mehr]
Wind variable 3kt
Sichtweite >10km
Wetter -
Wolken Few Clouds 4200ft
Broken Clouds 5000ft
Druck 1023
Änderung Temporary: Wind 270º 15kt.
Roh LOWI 201720Z VRB03KT 9999 FEW042 BKN050 02/M02 Q1023 TEMPO 27015KT

VFR

1°C / -2°C

[Mehr]
Wind variable 3kt
Sichtweite >10km
Wetter -
Wolken Few Clouds 5000ft
Broken Clouds 7000ft
Druck 1023
Änderung Temporary: Wind 270º 12kt.
Roh LOWI 201650Z VRB03KT 9999 FEW050 BKN070 01/M02 Q1023 TEMPO 27012KT

VFR

2°C / -2°C

[Mehr]
Wind variable 2kt
Sichtweite >10km
Wetter -
Wolken Few Clouds 4500ft
Broken Clouds 7000ft
Druck 1023
Änderung No Significant change
Roh LOWI 201620Z VRB02KT 9999 FEW045 BKN070 02/M02 Q1023 NOSIG

VFR

3°C / -2°C

[Mehr]
Wind 100º variable 070º to 150º 3kt
Sichtweite >10km
Wetter -
Wolken Few Clouds 4200ft
Broken Clouds 7500ft
Druck 1023
Änderung No Significant change
Roh LOWI 201550Z 10003KT 070V150 9999 FEW042 BKN075 03/M02 Q1023 NOSIG

VFR

3°C / -1°C

[Mehr]
Wind variable 2kt
Sichtweite >10km
Wetter -
Wolken Few Clouds 1700ft
Broken Clouds 7500ft
Druck 1022
Änderung No Significant change
Roh LOWI 201520Z VRB02KT 9999 FEW017 BKN075 03/M01 Q1022 NOSIG

VFR

3°C / -1°C

[Mehr]
Wind variable 2kt
Sichtweite >10km
Wetter -
Wolken Few Clouds 1700ft
Scattered Clouds 6000ft
Broken Clouds 7500ft
Druck 1022
Änderung No Significant change
Roh LOWI 201450Z VRB02KT 9999 FEW017 SCT060 BKN075 03/M01 Q1022 NOSIG

VFR

3°C / 0°C

[Mehr]
Wind 60º variable 020º to 100º 4kt
Sichtweite >10km
Wetter -
Wolken Few Clouds 2000ft
Scattered Clouds 6000ft
Broken Clouds 7500ft
Druck 1022
Änderung No Significant change
Roh LOWI 201420Z 06004KT 020V100 9999 FEW020 SCT060 BKN075 03/M00 Q1022 NOSIG

VFR

3°C / -1°C

[Mehr]
Wind 70º 8kt
Sichtweite >10km
Wetter -
Wolken Few Clouds 2000ft
Broken Clouds 6000ft
Druck 1021
Änderung No Significant change
Roh LOWI 201350Z 07008KT 9999 FEW020 BKN060 03/M01 Q1021 NOSIG

VFR

3°C / -1°C

[Mehr]
Wind 90º variable 060º to 130º 6kt
Sichtweite >10km
Wetter -
Wolken Few Clouds 3500ft
Scattered Clouds 5000ft
Broken Clouds 7000ft
Druck 1021
Änderung No Significant change
Roh LOWI 201320Z 09006KT 060V130 9999 FEW035 SCT050 BKN070 03/M01 Q1021 NOSIG

VFR

3°C / -1°C

[Mehr]
Wind 70º variable 040º to 120º 6kt
Sichtweite >10km
Wetter -
Wolken Few Clouds 3500ft
Broken Clouds 5000ft
Druck 1022
Änderung No Significant change
Roh LOWI 201250Z 07006KT 040V120 9999 FEW035 BKN050 03/M01 Q1022 NOSIG

VFR

3°C / -2°C

[Mehr]
Wind 70º 5kt
Sichtweite >10km
Wetter Light Snow 1.00mm precipitation
Wolken Vertical Visibility of 0ft.
Broken Clouds 5000ft
Druck 1022
Änderung No Significant change
Roh LOWI 201220Z 07005KT 9999 -SN FEW030 BKN050 03/M02 Q1022 NOSIG

VFR

3°C / -2°C

[Mehr]
Wind 110º variable 050º to 170º 4kt
Sichtweite >10km
Wetter -
Wolken Few Clouds 4000ft
Scattered Clouds 5000ft
Broken Clouds 6000ft
Druck 1022
Änderung No Significant change
Roh LOWI 201150Z 11004KT 050V170 9999 FEW040 SCT050 BKN060 03/M02 Q1022 NOSIG

VFR

3°C / -3°C

[Mehr]
Wind 100º variable 040º to 170º 3kt
Sichtweite >10km
Wetter Light Snow Grains 1.00mm precipitation
Wolken Vertical Visibility of 0ft.
Scattered Clouds 5000ft
Broken Clouds 6000ft
Druck 1022
Änderung No Significant change
Roh LOWI 201120Z 10003KT 040V170 9999 -SG FEW040 SCT050 BKN060 03/M03 Q1022 NOSIG

TAF für Innsbruck (LOWI)

From till


Maximum Temperature 2ºC on . Minimum Temperature -1ºC on .
From till Wind 70º 5kt. Visibility 10km or more. Few Clouds 3000ft. Broken Clouds 5000ft.
With 40% probability, Temporarly from till Wind 270º 10kt. Visibility 3000m. Showers Snow . Obscured Sky.
Temporarly from till Light Snow .

Roh: TAF LOWI 201715Z 2018/2118 07005KT 9999 FEW030 BKN050 TX02/2114Z TNM01/2107Z TEMPO 2018/2112 -SN PROB40 TEMPO 2018/2109 27010KT 3000 SHSN VV010

Radar für Innsbruck

Nieselregen
Leicht
Moderat
Stark
Sehr schwer
Hagel

Die Ortsmarkierung zeigt auf Innsbruck. Diese Animation zeigt das Niederschlagsradar der letzten Stunde, sowie eine 2h Vorhersage. Nieselregen und leichter Schneefall können für das Radar unsichtbar sein. Die Niederschlagsintensität ist farbcodiert von Hellblau bis Orange.
Copyright 2022 Deutscher Wetterdienst / meteoblue.

Aktuelle Satelliten- und Regenbilder für Innsbruck, Österreich

Die Standortmarkierung ist platziert auf Innsbruck. [Mehr]

Das Echtzeit-Satellitenbild kombiniert sichtbares Licht während des Tages mit Infrarotstrahlung während der Nacht. Nachts ist das Bild nicht dunkel, da Infrarotstrahlung Temperaturunterschiede erkennen kann. Leider sind niedrige Wolken und Nebel nur schwer von den Bodentemperaturen zu unterscheiden und können daher nachts fast unsichtbar sein. Meteosat-Satellitenbilder für Europa werden alle 5 Minuten in Echtzeit aktualisiert. Die Bilder GOES-16 / GOES-17 (Nord- und Südamerika) und Himawari (Asien) werden alle 10 Minuten aktualisiert.

Niederschläge werden von Radar und Satelliten berechnet. Nachts sind die Niederschlagsberechnungen durch die Satelliten weniger genau als tagsüber. Orangene Kreuze markieren Stellen, an denen Blitze aufgenommen wurden (über Europa).

Copyright 2022 EUMETSAT / meteoblue. Blitzdaten zur Verfügung gestellt von nowcast.